createdAt,value
2017-11-30T00:00:13.757Z,0
2017-11-30T00:01:22.600Z,0
2017-11-30T00:02:31.541Z,0
2017-11-30T00:03:40.390Z,0
2017-11-30T00:04:49.225Z,0
2017-11-30T00:05:58.065Z,0
2017-11-30T00:07:06.905Z,0
2017-11-30T00:08:15.898Z,0
2017-11-30T00:09:24.743Z,0
2017-11-30T00:10:33.867Z,0
2017-11-30T00:11:42.712Z,0
2017-11-30T00:12:51.549Z,0
2017-11-30T00:14:00.389Z,0
2017-11-30T00:15:09.237Z,0
2017-11-30T00:16:18.072Z,0
2017-11-30T00:17:26.915Z,0
2017-11-30T00:18:36.041Z,0
2017-11-30T00:19:44.981Z,0
2017-11-30T00:20:53.825Z,0
2017-11-30T00:22:02.665Z,0
2017-11-30T00:23:11.508Z,0
2017-11-30T00:24:20.354Z,0
2017-11-30T00:25:29.500Z,0
2017-11-30T00:26:38.341Z,0
2017-11-30T00:27:47.183Z,0
2017-11-30T00:28:56.029Z,0
2017-11-30T00:30:04.868Z,0
2017-11-30T00:31:13.860Z,0
2017-11-30T00:32:22.698Z,0
2017-11-30T00:33:31.536Z,0
2017-11-30T00:34:40.662Z,0
2017-11-30T00:35:49.507Z,0
2017-11-30T00:36:58.501Z,0
2017-11-30T00:38:07.628Z,0
2017-11-30T00:39:16.749Z,0
2017-11-30T00:40:25.591Z,0
2017-11-30T00:41:34.434Z,0
2017-11-30T00:42:43.485Z,0
2017-11-30T00:43:52.324Z,0
2017-11-30T00:45:01.164Z,0
2017-11-30T00:46:10.010Z,0
2017-11-30T00:47:18.851Z,0
2017-11-30T00:48:28.230Z,0
2017-11-30T00:49:37.362Z,0
2017-11-30T00:50:46.501Z,0
2017-11-30T00:51:55.321Z,0
2017-11-30T00:53:04.165Z,0
2017-11-30T00:54:13.009Z,0
2017-11-30T00:55:21.853Z,0
2017-11-30T00:56:30.975Z,0
2017-11-30T00:57:40.097Z,0
2017-11-30T00:58:48.937Z,0
2017-11-30T00:59:57.930Z,0
2017-11-30T01:01:06.770Z,0
2017-11-30T01:02:15.612Z,0
2017-11-30T01:03:24.453Z,0
2017-11-30T01:04:33.294Z,0
2017-11-30T01:05:42.189Z,0
2017-11-30T01:06:51.036Z,0
2017-11-30T01:07:59.869Z,0
2017-11-30T01:09:08.715Z,0
2017-11-30T01:10:17.556Z,0
2017-11-30T01:11:26.494Z,0
2017-11-30T01:12:35.337Z,0
2017-11-30T01:13:44.178Z,0
2017-11-30T01:14:53.021Z,0
2017-11-30T01:16:01.861Z,0
2017-11-30T01:17:10.855Z,0
2017-11-30T01:18:19.697Z,0
2017-11-30T01:19:28.541Z,0
2017-11-30T01:20:37.382Z,0
2017-11-30T01:21:46.504Z,0
2017-11-30T01:22:55.403Z,0
2017-11-30T01:24:04.575Z,0
2017-11-30T01:25:13.416Z,0
2017-11-30T01:26:22.255Z,0
2017-11-30T01:27:31.095Z,0
2017-11-30T01:28:40.085Z,0
2017-11-30T01:29:48.929Z,0
2017-11-30T01:30:57.770Z,0
2017-11-30T01:32:07.178Z,0
2017-11-30T01:33:16.022Z,0
2017-11-30T01:34:24.866Z,0
2017-11-30T01:35:33.710Z,0
2017-11-30T01:36:42.556Z,0
2017-11-30T01:37:51.398Z,0
2017-11-30T01:39:00.244Z,0
2017-11-30T01:40:09.576Z,0
2017-11-30T01:41:18.421Z,0
2017-11-30T01:42:27.267Z,0
2017-11-30T01:43:36.388Z,0
2017-11-30T01:44:45.227Z,0
2017-11-30T01:45:54.118Z,0
2017-11-30T01:47:02.959Z,0
2017-11-30T01:48:11.801Z,0
2017-11-30T01:49:20.644Z,0
2017-11-30T01:50:29.485Z,0
2017-11-30T01:51:38.330Z,0
2017-11-30T01:52:47.172Z,0
2017-11-30T01:53:56.013Z,0
2017-11-30T01:55:04.872Z,0
2017-11-30T01:56:13.698Z,0
2017-11-30T01:57:22.644Z,0
2017-11-30T01:58:31.481Z,0
2017-11-30T01:59:40.322Z,0
2017-11-30T02:00:49.163Z,0
2017-11-30T02:01:58.002Z,0
2017-11-30T02:03:06.846Z,0
2017-11-30T02:04:15.690Z,0
2017-11-30T02:05:24.530Z,0
2017-11-30T02:06:33.373Z,0
2017-11-30T02:07:42.216Z,0
2017-11-30T02:08:51.209Z,0
2017-11-30T02:10:00.053Z,0
2017-11-30T02:11:08.893Z,0
2017-11-30T02:12:17.734Z,0
2017-11-30T02:13:26.577Z,0
2017-11-30T02:14:35.568Z,0
2017-11-30T02:15:44.408Z,0
2017-11-30T02:16:53.251Z,0
2017-11-30T02:18:02.093Z,0
2017-11-30T02:19:10.935Z,0
2017-11-30T02:20:19.929Z,0
2017-11-30T02:21:28.770Z,0
2017-11-30T02:22:37.615Z,0
2017-11-30T02:23:46.459Z,0
2017-11-30T02:24:55.584Z,0
2017-11-30T02:26:05.004Z,0
2017-11-30T02:27:13.845Z,0
2017-11-30T02:28:22.971Z,0
2017-11-30T02:29:31.807Z,0
2017-11-30T02:30:40.940Z,0
2017-11-30T02:31:49.929Z,0
2017-11-30T02:32:58.775Z,0
2017-11-30T02:34:07.619Z,0
2017-11-30T02:35:16.460Z,0
2017-11-30T02:36:25.304Z,0
2017-11-30T02:37:34.195Z,0
2017-11-30T02:38:43.040Z,0
2017-11-30T02:39:52.439Z,0
2017-11-30T02:41:01.284Z,0
2017-11-30T02:42:10.125Z,0
2017-11-30T02:43:20.417Z,0
2017-11-30T02:44:29.254Z,0
2017-11-30T02:45:38.105Z,0
2017-11-30T02:46:46.941Z,0
2017-11-30T02:47:55.784Z,0
2017-11-30T02:49:04.774Z,0
2017-11-30T02:50:13.624Z,0
2017-11-30T02:51:22.463Z,0
2017-11-30T02:52:31.323Z,0
2017-11-30T02:53:40.426Z,0
2017-11-30T02:54:49.373Z,0
2017-11-30T02:55:58.211Z,0
2017-11-30T02:57:07.057Z,0
2017-11-30T02:58:16.180Z,0
2017-11-30T02:59:25.023Z,0
2017-11-30T03:00:34.271Z,0
2017-11-30T03:01:43.108Z,0
2017-11-30T03:02:51.951Z,0
2017-11-30T03:04:00.793Z,0
2017-11-30T03:05:09.969Z,0
2017-11-30T03:06:18.961Z,0
2017-11-30T03:07:28.378Z,0
2017-11-30T03:08:37.222Z,0
2017-11-30T03:09:46.058Z,0
2017-11-30T03:10:54.900Z,0
2017-11-30T03:12:04.043Z,0
2017-11-30T03:13:12.885Z,0
2017-11-30T03:14:21.765Z,0
2017-11-30T03:15:30.571Z,0
2017-11-30T03:16:39.415Z,0
2017-11-30T03:17:48.647Z,0
2017-11-30T03:18:57.488Z,0
2017-11-30T03:20:06.334Z,0
2017-11-30T03:21:15.177Z,0
2017-11-30T03:22:24.018Z,0
2017-11-30T03:23:32.863Z,0
2017-11-30T03:24:41.705Z,0
2017-11-30T03:25:50.545Z,0
2017-11-30T03:26:59.389Z,0
2017-11-30T03:28:08.512Z,0
2017-11-30T03:29:17.354Z,0
2017-11-30T03:30:26.199Z,0
2017-11-30T03:31:35.044Z,0
2017-11-30T03:32:44.453Z,0
2017-11-30T03:33:53.614Z,0
2017-11-30T03:35:02.570Z,0
2017-11-30T03:36:11.416Z,0
2017-11-30T03:37:20.254Z,0
2017-11-30T03:38:29.098Z,0
2017-11-30T03:39:37.941Z,0
2017-11-30T03:40:47.365Z,0
2017-11-30T03:41:56.212Z,0
2017-11-30T03:43:05.053Z,0
2017-11-30T03:44:13.899Z,0
2017-11-30T03:45:22.737Z,0
2017-11-30T03:46:31.579Z,0
2017-11-30T03:47:40.421Z,0
2017-11-30T03:48:49.271Z,0
2017-11-30T03:49:58.104Z,0
2017-11-30T03:51:06.948Z,0
2017-11-30T03:52:15.896Z,0
2017-11-30T03:53:24.735Z,0
2017-11-30T03:54:33.573Z,0
2017-11-30T03:55:42.423Z,0
2017-11-30T03:56:51.266Z,0
2017-11-30T03:58:00.204Z,0
2017-11-30T03:59:09.046Z,0
2017-11-30T04:00:17.896Z,0
2017-11-30T04:01:26.730Z,0
2017-11-30T04:02:35.574Z,0
2017-11-30T04:03:44.950Z,0
2017-11-30T04:04:53.797Z,0
2017-11-30T04:06:02.636Z,0
2017-11-30T04:07:11.479Z,0
2017-11-30T04:08:20.604Z,0
2017-11-30T04:09:29.745Z,0
2017-11-30T04:10:38.586Z,0
2017-11-30T04:11:47.426Z,0
2017-11-30T04:12:56.272Z,0
2017-11-30T04:14:05.420Z,0
2017-11-30T04:15:14.568Z,0
2017-11-30T04:16:23.411Z,0
2017-11-30T04:17:32.251Z,0
2017-11-30T04:18:41.097Z,0
2017-11-30T04:19:49.934Z,0
2017-11-30T04:20:58.926Z,0
2017-11-30T04:22:07.767Z,0
2017-11-30T04:23:16.610Z,0
2017-11-30T04:24:25.459Z,0
2017-11-30T04:25:34.584Z,0
2017-11-30T04:26:43.477Z,0
2017-11-30T04:27:52.319Z,0
2017-11-30T04:29:01.162Z,0
2017-11-30T04:30:10.007Z,0
2017-11-30T04:31:18.851Z,0
2017-11-30T04:32:27.855Z,0
2017-11-30T04:33:36.678Z,0
2017-11-30T04:34:45.523Z,0
2017-11-30T04:35:54.362Z,0
2017-11-30T04:37:03.205Z,0
2017-11-30T04:38:12.149Z,0
2017-11-30T04:39:20.991Z,0
2017-11-30T04:40:29.831Z,0
2017-11-30T04:41:38.715Z,0
2017-11-30T04:42:47.513Z,0
2017-11-30T04:43:56.501Z,0
2017-11-30T04:45:05.346Z,0
2017-11-30T04:46:14.189Z,0
2017-11-30T04:47:23.029Z,0
2017-11-30T04:48:31.869Z,0
2017-11-30T04:49:41.140Z,0
2017-11-30T04:50:49.981Z,0
2017-11-30T04:51:58.824Z,0
2017-11-30T04:53:07.663Z,0
2017-11-30T04:54:16.504Z,0
2017-11-30T04:55:25.605Z,0
2017-11-30T04:56:34.439Z,0
2017-11-30T04:57:43.570Z,0
2017-11-30T04:58:52.413Z,0
2017-11-30T05:00:01.267Z,0
2017-11-30T05:01:10.245Z,0
2017-11-30T05:02:19.095Z,0
2017-11-30T05:03:27.932Z,0
2017-11-30T05:04:36.766Z,0
2017-11-30T05:05:45.607Z,0
2017-11-30T05:06:54.452Z,0
2017-11-30T05:08:03.295Z,0
2017-11-30T05:09:12.416Z,0
2017-11-30T05:10:21.537Z,0
2017-11-30T05:11:30.382Z,0
2017-11-30T05:12:39.475Z,0
2017-11-30T05:13:48.310Z,0
2017-11-30T05:14:57.153Z,0
2017-11-30T05:16:05.995Z,0
2017-11-30T05:17:14.848Z,0
2017-11-30T05:18:23.829Z,0
2017-11-30T05:19:32.681Z,0
2017-11-30T05:20:41.515Z,0
2017-11-30T05:21:50.362Z,0
2017-11-30T05:22:59.196Z,0
2017-11-30T05:24:08.096Z,0
2017-11-30T05:25:16.933Z,0
2017-11-30T05:26:25.771Z,0
2017-11-30T05:27:34.615Z,0
2017-11-30T05:28:43.456Z,0
2017-11-30T05:29:52.697Z,0
2017-11-30T05:31:01.538Z,0
2017-11-30T05:32:10.379Z,0
2017-11-30T05:33:19.231Z,0
2017-11-30T05:34:28.061Z,0
2017-11-30T05:35:36.906Z,0
2017-11-30T05:36:45.746Z,0
2017-11-30T05:37:54.592Z,0
2017-11-30T05:39:03.436Z,0
2017-11-30T05:40:12.278Z,0
2017-11-30T05:41:21.121Z,0
2017-11-30T05:42:29.963Z,0
2017-11-30T05:43:38.813Z,0
2017-11-30T05:44:48.232Z,0
2017-11-30T05:45:57.074Z,0
2017-11-30T05:47:06.112Z,0
2017-11-30T05:48:14.953Z,0
2017-11-30T05:49:23.792Z,0
2017-11-30T05:50:32.636Z,0
2017-11-30T05:51:41.486Z,0
2017-11-30T05:52:50.468Z,0
2017-11-30T05:53:59.314Z,0
2017-11-30T05:55:08.153Z,0
2017-11-30T05:56:16.996Z,0
2017-11-30T05:57:25.837Z,0
2017-11-30T05:58:34.728Z,0
2017-11-30T05:59:43.579Z,0
2017-11-30T06:00:52.417Z,0
2017-11-30T06:02:01.540Z,0
2017-11-30T06:03:10.662Z,0
2017-11-30T06:04:19.804Z,0
2017-11-30T06:05:28.648Z,0
2017-11-30T06:06:37.767Z,0
2017-11-30T06:07:46.609Z,0
2017-11-30T06:08:55.453Z,0
2017-11-30T06:10:04.497Z,0
2017-11-30T06:11:13.342Z,0
2017-11-30T06:12:22.182Z,0
2017-11-30T06:13:31.029Z,0
2017-11-30T06:14:39.877Z,0
2017-11-30T06:15:49.004Z,0
2017-11-30T06:16:57.847Z,0
2017-11-30T06:18:06.687Z,0
2017-11-30T06:19:15.552Z,0
2017-11-30T06:20:25.237Z,0
2017-11-30T06:21:34.361Z,0
2017-11-30T06:22:43.202Z,0
2017-11-30T06:23:52.093Z,0
2017-11-30T06:25:00.942Z,0
2017-11-30T06:26:09.786Z,0
2017-11-30T06:27:18.833Z,0
2017-11-30T06:28:27.673Z,0
2017-11-30T06:29:36.518Z,0
2017-11-30T06:30:45.362Z,0
2017-11-30T06:31:54.203Z,0
2017-11-30T06:33:03.149Z,0
2017-11-30T06:34:11.989Z,0
2017-11-30T06:35:20.833Z,0
2017-11-30T06:36:29.682Z,0
2017-11-30T06:37:38.524Z,0
2017-11-30T06:38:47.470Z,0
2017-11-30T06:39:56.312Z,0
2017-11-30T06:41:05.157Z,0
2017-11-30T06:42:14.000Z,0
2017-11-30T06:43:22.844Z,0
2017-11-30T06:44:31.743Z,0
2017-11-30T06:45:40.582Z,0
2017-11-30T06:46:49.425Z,0
2017-11-30T06:47:58.269Z,0
2017-11-30T06:49:07.113Z,4
2017-11-30T06:50:15.958Z,4
2017-11-30T06:51:25.088Z,0
2017-11-30T06:52:33.932Z,4
2017-11-30T06:53:42.777Z,4
2017-11-30T06:54:51.621Z,4
2017-11-30T06:56:00.517Z,4
2017-11-30T06:57:09.388Z,4
2017-11-30T06:58:18.207Z,4
2017-11-30T06:59:27.045Z,4
2017-11-30T07:00:35.884Z,8
2017-11-30T07:01:44.783Z,8
2017-11-30T07:02:53.630Z,12
2017-11-30T07:04:02.466Z,16
2017-11-30T07:05:11.310Z,12
2017-11-30T07:06:20.154Z,20
2017-11-30T07:07:29.047Z,20
2017-11-30T07:08:37.892Z,24
2017-11-30T07:09:46.739Z,28
2017-11-30T07:10:55.586Z,28
2017-11-30T07:12:04.428Z,36
2017-11-30T07:13:13.682Z,40
2017-11-30T07:14:22.523Z,44
2017-11-30T07:15:31.366Z,52
2017-11-30T07:16:40.488Z,56
2017-11-30T07:17:49.332Z,56
2017-11-30T07:18:59.524Z,60
2017-11-30T07:20:08.369Z,64
2017-11-30T07:21:17.214Z,72
2017-11-30T07:22:26.064Z,84
2017-11-30T07:23:34.905Z,100
2017-11-30T07:24:43.900Z,104
2017-11-30T07:25:53.028Z,120
2017-11-30T07:27:02.153Z,128
2017-11-30T07:28:11.001Z,140
2017-11-30T07:29:20.128Z,140
2017-11-30T07:30:29.172Z,132
2017-11-30T07:31:38.011Z,128
2017-11-30T07:32:47.150Z,140
2017-11-30T07:33:56.004Z,152
2017-11-30T07:35:04.843Z,168
2017-11-30T07:36:13.835Z,188
2017-11-30T07:37:22.963Z,204
2017-11-30T07:38:31.809Z,232
2017-11-30T07:39:40.656Z,228
2017-11-30T07:40:49.504Z,224
2017-11-30T07:41:58.446Z,248
2017-11-30T07:43:07.570Z,272
2017-11-30T07:44:16.414Z,280
2017-11-30T07:45:25.259Z,276
2017-11-30T07:46:34.103Z,268
2017-11-30T07:47:42.946Z,260
2017-11-30T07:48:51.787Z,260
2017-11-30T07:50:00.632Z,264
2017-11-30T07:51:09.481Z,272
2017-11-30T07:52:18.604Z,276
2017-11-30T07:53:28.028Z,280
2017-11-30T07:54:36.870Z,280
2017-11-30T07:55:45.715Z,312
2017-11-30T07:56:54.558Z,340
2017-11-30T07:58:03.402Z,368
2017-11-30T07:59:12.646Z,392
2017-11-30T08:00:21.491Z,420
2017-11-30T08:01:30.333Z,424
2017-11-30T08:02:39.179Z,420
2017-11-30T08:03:48.026Z,412
2017-11-30T08:04:56.966Z,376
2017-11-30T08:06:05.812Z,376
2017-11-30T08:07:14.655Z,396
2017-11-30T08:08:23.782Z,428
2017-11-30T08:09:32.624Z,424
2017-11-30T08:10:41.625Z,424
2017-11-30T08:11:50.753Z,424
2017-11-30T08:12:59.596Z,420
2017-11-30T08:14:08.737Z,408
2017-11-30T08:15:17.579Z,420
2017-11-30T08:16:26.723Z,440
2017-11-30T08:17:35.567Z,468
2017-11-30T08:18:44.415Z,488
2017-11-30T08:19:53.259Z,488
2017-11-30T08:21:02.113Z,504
2017-11-30T08:22:11.490Z,532
2017-11-30T08:23:20.633Z,544
2017-11-30T08:24:29.481Z,576
2017-11-30T08:25:38.329Z,716
2017-11-30T08:26:47.174Z,828
2017-11-30T08:27:56.408Z,824
2017-11-30T08:29:05.253Z,816
2017-11-30T08:30:14.107Z,844
2017-11-30T08:31:23.512Z,760
2017-11-30T08:32:32.356Z,732
2017-11-30T08:33:41.352Z,696
2017-11-30T08:34:50.192Z,712
2017-11-30T08:35:59.314Z,720
2017-11-30T08:37:08.159Z,692
2017-11-30T08:38:17.001Z,596
2017-11-30T08:39:25.847Z,552
2017-11-30T08:40:34.967Z,548
2017-11-30T08:41:43.812Z,552
2017-11-30T08:42:52.655Z,560
2017-11-30T08:44:01.505Z,524
2017-11-30T08:45:10.414Z,552
2017-11-30T08:46:19.254Z,580
2017-11-30T08:47:28.094Z,572
2017-11-30T08:48:36.939Z,560
2017-11-30T08:49:46.063Z,560
2017-11-30T08:50:54.955Z,588
2017-11-30T08:52:03.831Z,616
2017-11-30T08:53:12.642Z,624
2017-11-30T08:54:21.487Z,628
2017-11-30T08:55:30.330Z,640
2017-11-30T08:56:39.450Z,624
2017-11-30T08:57:48.265Z,612
2017-11-30T08:58:57.108Z,668
2017-11-30T09:00:05.957Z,716
2017-11-30T09:01:15.361Z,712
2017-11-30T09:02:24.263Z,724
2017-11-30T09:03:33.388Z,780
2017-11-30T09:04:42.232Z,924
2017-11-30T09:05:51.074Z,1224
2017-11-30T09:06:59.918Z,1320
2017-11-30T09:08:08.757Z,1320
2017-11-30T09:09:17.886Z,1348
2017-11-30T09:10:26.727Z,1452
2017-11-30T09:11:35.572Z,1592
2017-11-30T09:12:44.696Z,1524
2017-11-30T09:13:53.595Z,1500
2017-11-30T09:15:02.432Z,1612
2017-11-30T09:16:11.280Z,1704
2017-11-30T09:17:20.122Z,1888
2017-11-30T09:18:28.969Z,1788
2017-11-30T09:19:37.966Z,1656
2017-11-30T09:20:46.814Z,1672
2017-11-30T09:21:55.655Z,1668
2017-11-30T09:23:04.502Z,1552
2017-11-30T09:24:13.349Z,1512
2017-11-30T09:25:22.631Z,1644
2017-11-30T09:26:31.472Z,1576
2017-11-30T09:27:40.320Z,1608
2017-11-30T09:28:49.160Z,1708
2017-11-30T09:29:58.004Z,1612
2017-11-30T09:31:07.001Z,1652
2017-11-30T09:32:15.846Z,1716
2017-11-30T09:33:24.969Z,1816
2017-11-30T09:34:33.809Z,1972
2017-11-30T09:35:42.655Z,2116
2017-11-30T09:36:51.507Z,2180
2017-11-30T09:38:00.346Z,1928
2017-11-30T09:39:09.193Z,1872
2017-11-30T09:40:18.320Z,1816
2017-11-30T09:41:27.442Z,1844
2017-11-30T09:42:36.686Z,2184
2017-11-30T09:43:45.532Z,2136
2017-11-30T09:44:54.381Z,1952
2017-11-30T09:46:03.507Z,1812
2017-11-30T09:47:12.352Z,1492
2017-11-30T09:48:21.198Z,1208
2017-11-30T09:49:30.041Z,1268
2017-11-30T09:50:38.887Z,1176
2017-11-30T09:51:47.732Z,1176
2017-11-30T09:52:56.572Z,1104
2017-11-30T09:54:05.469Z,1116
2017-11-30T09:55:14.628Z,1168
2017-11-30T09:56:23.465Z,1212
2017-11-30T09:57:32.310Z,1236
2017-11-30T09:58:41.155Z,1164
2017-11-30T09:59:50.098Z,1332
2017-11-30T10:00:59.223Z,1468
2017-11-30T10:02:08.637Z,1588
2017-11-30T10:03:17.482Z,1748
2017-11-30T10:04:26.611Z,1776
2017-11-30T10:05:35.569Z,1812
2017-11-30T10:06:44.407Z,1780
2017-11-30T10:07:53.251Z,1712
2017-11-30T10:09:02.095Z,1780
2017-11-30T10:10:10.941Z,1752
2017-11-30T10:11:19.883Z,1712
2017-11-30T10:12:28.728Z,1848
2017-11-30T10:13:37.571Z,1812
2017-11-30T10:14:46.416Z,1832
2017-11-30T10:15:55.542Z,1636
2017-11-30T10:17:04.541Z,1616
2017-11-30T10:18:13.674Z,1648
2017-11-30T10:19:22.802Z,1460
2017-11-30T10:20:31.647Z,1476
2017-11-30T10:21:40.789Z,1532
2017-11-30T10:22:50.117Z,1488
2017-11-30T10:23:58.963Z,1524
2017-11-30T10:25:07.805Z,1512
2017-11-30T10:26:16.647Z,1752
2017-11-30T10:27:25.491Z,1748
2017-11-30T10:28:34.338Z,1768
2017-11-30T10:29:43.181Z,1820
2017-11-30T10:30:52.029Z,1784
2017-11-30T10:32:00.872Z,1980
2017-11-30T10:33:09.768Z,2156
2017-11-30T10:34:18.813Z,2320
2017-11-30T10:35:27.659Z,2324
2017-11-30T10:36:36.503Z,2416
2017-11-30T10:37:45.345Z,2756
2017-11-30T10:38:54.193Z,2960
2017-11-30T10:40:03.088Z,2976
2017-11-30T10:41:11.933Z,3080
2017-11-30T10:42:20.778Z,2816
2017-11-30T10:43:29.630Z,3080
2017-11-30T10:44:38.467Z,2964
2017-11-30T10:45:47.516Z,3276
2017-11-30T10:46:56.364Z,3080
2017-11-30T10:48:05.489Z,3288
2017-11-30T10:49:14.669Z,3704
2017-11-30T10:50:23.514Z,3812
2017-11-30T10:51:32.359Z,3808
2017-11-30T10:52:41.205Z,3736
2017-11-30T10:53:50.048Z,3344
2017-11-30T10:54:58.895Z,3172
2017-11-30T10:56:07.744Z,3260
2017-11-30T10:57:17.024Z,3132
2017-11-30T10:58:25.871Z,2880
2017-11-30T10:59:34.718Z,2748
2017-11-30T11:00:43.565Z,2608
2017-11-30T11:01:52.410Z,2852
2017-11-30T11:03:01.405Z,2820
2017-11-30T11:04:10.250Z,2376
2017-11-30T11:05:19.098Z,2012
2017-11-30T11:06:27.943Z,1844
2017-11-30T11:07:36.786Z,1740
2017-11-30T11:08:45.730Z,1744
2017-11-30T11:09:54.577Z,1704
2017-11-30T11:11:03.424Z,1740
2017-11-30T11:12:12.270Z,1944
2017-11-30T11:13:21.407Z,2220
2017-11-30T11:14:30.362Z,2308
2017-11-30T11:15:39.203Z,2436
2017-11-30T11:16:48.048Z,2596
2017-11-30T11:17:56.894Z,2492
2017-11-30T11:19:05.739Z,2116
2017-11-30T11:20:14.689Z,1752
2017-11-30T11:21:23.533Z,1664
2017-11-30T11:22:32.375Z,2008
2017-11-30T11:23:41.228Z,2296
2017-11-30T11:24:50.358Z,2072
2017-11-30T11:25:59.244Z,1820
2017-11-30T11:27:08.089Z,1460
2017-11-30T11:28:17.207Z,1412
2017-11-30T11:29:26.330Z,1752
2017-11-30T11:30:35.177Z,1892
2017-11-30T11:31:44.174Z,1676
2017-11-30T11:32:53.295Z,1376
2017-11-30T11:34:02.139Z,1240
2017-11-30T11:35:11.265Z,1168
2017-11-30T11:36:20.111Z,1140
2017-11-30T11:37:29.058Z,1136
2017-11-30T11:38:37.903Z,1072
2017-11-30T11:39:46.749Z,1000
2017-11-30T11:40:55.878Z,952
2017-11-30T11:42:05.014Z,1008
2017-11-30T11:43:13.910Z,1136
2017-11-30T11:44:22.757Z,1272
2017-11-30T11:45:31.604Z,1456
2017-11-30T11:46:40.448Z,1320
2017-11-30T11:47:49.301Z,1076
2017-11-30T11:48:58.190Z,1048
2017-11-30T11:50:07.033Z,1084
2017-11-30T11:51:15.877Z,1240
2017-11-30T11:52:24.719Z,1456
2017-11-30T11:53:33.863Z,1616
2017-11-30T11:54:42.808Z,1616
2017-11-30T11:55:51.658Z,1568
2017-11-30T11:57:00.504Z,1628
2017-11-30T11:58:09.349Z,1572
2017-11-30T11:59:18.195Z,1324
2017-11-30T12:00:27.193Z,1216
2017-11-30T12:01:36.039Z,1144
2017-11-30T12:02:44.884Z,1032
2017-11-30T12:03:53.732Z,936
2017-11-30T12:05:02.575Z,852
2017-11-30T12:06:11.558Z,804
2017-11-30T12:07:20.391Z,784
2017-11-30T12:08:29.216Z,792
2017-11-30T12:09:38.042Z,852
2017-11-30T12:10:46.869Z,944
2017-11-30T12:11:55.700Z,1028
2017-11-30T12:13:04.806Z,1044
2017-11-30T12:14:13.633Z,996
2017-11-30T12:15:22.473Z,984
2017-11-30T12:16:31.292Z,996
2017-11-30T12:17:40.408Z,1020
2017-11-30T12:18:49.234Z,976
2017-11-30T12:19:58.063Z,940
2017-11-30T12:21:06.895Z,960
2017-11-30T12:22:15.869Z,968
2017-11-30T12:23:24.697Z,972
2017-11-30T12:24:33.525Z,1000
2017-11-30T12:25:42.361Z,988
2017-11-30T12:26:51.195Z,936
2017-11-30T12:28:00.289Z,836
2017-11-30T12:29:09.121Z,752
2017-11-30T12:30:17.951Z,692
2017-11-30T12:31:26.778Z,656
2017-11-30T12:32:35.610Z,628
2017-11-30T12:33:44.444Z,612
2017-11-30T12:34:53.270Z,600
2017-11-30T12:36:02.386Z,592
2017-11-30T12:37:11.549Z,584
2017-11-30T12:38:20.667Z,592
2017-11-30T12:39:29.788Z,592
2017-11-30T12:40:38.913Z,612
2017-11-30T12:41:47.740Z,644
2017-11-30T12:42:56.719Z,652
2017-11-30T12:44:05.546Z,668
2017-11-30T12:45:14.633Z,692
2017-11-30T12:46:23.735Z,696
2017-11-30T12:47:32.567Z,676
2017-11-30T12:48:42.242Z,636
2017-11-30T12:49:51.076Z,624
2017-11-30T12:51:00.112Z,652
2017-11-30T12:52:09.231Z,604
2017-11-30T12:53:18.061Z,572
2017-11-30T12:54:27.295Z,580
2017-11-30T12:55:36.422Z,576
2017-11-30T12:56:45.249Z,568
2017-11-30T12:57:54.077Z,556
2017-11-30T12:59:02.905Z,556
2017-11-30T13:00:11.784Z,572
2017-11-30T13:01:20.615Z,608
2017-11-30T13:02:29.440Z,612
2017-11-30T13:03:38.281Z,624
2017-11-30T13:04:47.115Z,640
2017-11-30T13:05:56.044Z,640
2017-11-30T13:07:04.875Z,620
2017-11-30T13:08:13.703Z,604
2017-11-30T13:09:22.617Z,576
2017-11-30T13:10:31.455Z,572
2017-11-30T13:11:40.382Z,568
2017-11-30T13:12:49.211Z,536
2017-11-30T13:13:58.081Z,524
2017-11-30T13:15:06.910Z,528
2017-11-30T13:16:15.749Z,532
2017-11-30T13:17:24.679Z,552
2017-11-30T13:18:33.508Z,564
2017-11-30T13:19:42.333Z,560
2017-11-30T13:20:51.162Z,556
2017-11-30T13:21:59.993Z,536
2017-11-30T13:23:09.071Z,524
2017-11-30T13:24:17.901Z,496
2017-11-30T13:25:26.729Z,500
2017-11-30T13:26:35.555Z,488
2017-11-30T13:27:44.384Z,480
2017-11-30T13:28:53.536Z,516
2017-11-30T13:30:02.362Z,496
2017-11-30T13:31:11.190Z,440
2017-11-30T13:32:20.019Z,436
2017-11-30T13:33:29.120Z,452
2017-11-30T13:34:38.149Z,480
2017-11-30T13:35:46.976Z,480
2017-11-30T13:36:55.811Z,444
2017-11-30T13:38:04.927Z,404
2017-11-30T13:39:13.746Z,392
2017-11-30T13:40:22.625Z,392
2017-11-30T13:41:31.454Z,420
2017-11-30T13:42:40.563Z,440
2017-11-30T13:43:49.394Z,464
2017-11-30T13:44:58.222Z,476
2017-11-30T13:46:07.063Z,460
2017-11-30T13:47:15.885Z,444
2017-11-30T13:48:24.720Z,416
2017-11-30T13:49:33.609Z,384
2017-11-30T13:50:42.374Z,392
2017-11-30T13:51:51.503Z,448
2017-11-30T13:53:00.335Z,408
2017-11-30T13:54:09.172Z,384
2017-11-30T13:55:18.369Z,376
2017-11-30T13:56:27.207Z,372
2017-11-30T13:57:36.345Z,360
2017-11-30T13:58:45.166Z,348
2017-11-30T13:59:54.021Z,320
2017-11-30T14:01:02.850Z,320
2017-11-30T14:02:11.684Z,312
2017-11-30T14:03:20.811Z,280
2017-11-30T14:04:29.641Z,252
2017-11-30T14:05:38.471Z,220
2017-11-30T14:06:47.296Z,200
2017-11-30T14:07:56.396Z,192
2017-11-30T14:09:05.393Z,200
2017-11-30T14:10:14.479Z,212
2017-11-30T14:11:23.306Z,232
2017-11-30T14:12:32.133Z,252
2017-11-30T14:13:40.958Z,316
2017-11-30T14:14:49.936Z,320
2017-11-30T14:15:58.764Z,280
2017-11-30T14:17:07.592Z,248
2017-11-30T14:18:16.696Z,232
2017-11-30T14:19:25.521Z,196
2017-11-30T14:20:34.877Z,180
2017-11-30T14:21:43.706Z,172
2017-11-30T14:22:52.535Z,184
2017-11-30T14:24:01.362Z,204
2017-11-30T14:25:10.464Z,188
2017-11-30T14:26:19.441Z,160
2017-11-30T14:27:28.267Z,176
2017-11-30T14:28:37.096Z,160
2017-11-30T14:29:45.922Z,116
2017-11-30T14:30:54.749Z,108
2017-11-30T14:32:03.900Z,108
2017-11-30T14:33:12.736Z,116
2017-11-30T14:34:21.577Z,120
2017-11-30T14:35:30.411Z,116
2017-11-30T14:36:39.253Z,108
2017-11-30T14:37:48.242Z,116
2017-11-30T14:38:57.072Z,100
2017-11-30T14:40:05.900Z,84
2017-11-30T14:41:14.728Z,84
2017-11-30T14:42:23.561Z,88
2017-11-30T14:43:32.536Z,96
2017-11-30T14:44:41.366Z,88
2017-11-30T14:45:50.192Z,84
2017-11-30T14:46:59.023Z,80
2017-11-30T14:48:07.847Z,76
2017-11-30T14:49:16.675Z,68
2017-11-30T14:50:25.504Z,68
2017-11-30T14:51:34.603Z,60
2017-11-30T14:52:43.429Z,60
2017-11-30T14:53:52.534Z,64
2017-11-30T14:55:01.511Z,56
2017-11-30T14:56:10.337Z,48
2017-11-30T14:57:19.165Z,44
2017-11-30T14:58:28.274Z,44
2017-11-30T14:59:37.100Z,44
2017-11-30T15:00:46.077Z,40
2017-11-30T15:01:55.181Z,32
2017-11-30T15:03:04.012Z,28
2017-11-30T15:04:12.839Z,28
2017-11-30T15:05:21.667Z,28
2017-11-30T15:06:30.495Z,32
2017-11-30T15:07:39.322Z,32
2017-11-30T15:08:48.150Z,28
2017-11-30T15:09:56.980Z,28
2017-11-30T15:11:05.806Z,24
2017-11-30T15:12:14.634Z,24
2017-11-30T15:13:23.461Z,24
2017-11-30T15:14:32.289Z,24
2017-11-30T15:15:41.421Z,16
2017-11-30T15:16:50.246Z,16
2017-11-30T15:17:59.413Z,16
2017-11-30T15:19:08.242Z,16
2017-11-30T15:20:17.069Z,12
2017-11-30T15:21:25.904Z,12
2017-11-30T15:22:34.729Z,8
2017-11-30T15:23:44.104Z,12
2017-11-30T15:24:53.142Z,8
2017-11-30T15:26:02.027Z,8
2017-11-30T15:27:10.854Z,8
2017-11-30T15:28:19.686Z,4
2017-11-30T15:29:28.891Z,8
2017-11-30T15:30:38.009Z,4
2017-11-30T15:31:46.836Z,4
2017-11-30T15:32:55.665Z,4
2017-11-30T15:34:04.494Z,0
2017-11-30T15:35:13.575Z,0
2017-11-30T15:36:22.674Z,4
2017-11-30T15:37:31.509Z,4
2017-11-30T15:38:40.662Z,4
2017-11-30T15:39:49.434Z,0
2017-11-30T15:40:58.314Z,0
2017-11-30T15:42:07.143Z,0
2017-11-30T15:43:15.977Z,0
2017-11-30T15:44:24.804Z,0
2017-11-30T15:45:33.631Z,0
2017-11-30T15:46:42.731Z,0
2017-11-30T15:47:51.560Z,0
2017-11-30T15:49:00.383Z,0
2017-11-30T15:50:09.212Z,0
2017-11-30T15:51:18.036Z,0
2017-11-30T15:52:27.440Z,0
2017-11-30T15:53:36.263Z,0
2017-11-30T15:54:45.090Z,0
2017-11-30T15:55:53.918Z,0
2017-11-30T15:57:02.745Z,0
2017-11-30T15:58:11.773Z,0
2017-11-30T15:59:20.598Z,0
2017-11-30T16:00:29.425Z,0
2017-11-30T16:01:38.257Z,0
2017-11-30T16:02:47.086Z,0
2017-11-30T16:03:55.960Z,0
2017-11-30T16:05:04.792Z,0
2017-11-30T16:06:13.619Z,0
2017-11-30T16:07:22.448Z,0
2017-11-30T16:08:31.274Z,0
2017-11-30T16:09:40.151Z,0
2017-11-30T16:10:48.977Z,0
2017-11-30T16:11:58.086Z,0
2017-11-30T16:13:06.913Z,0
2017-11-30T16:14:15.740Z,0
2017-11-30T16:15:24.569Z,0
2017-11-30T16:16:33.392Z,0
2017-11-30T16:17:42.218Z,0